Terminal Aerodrome Forecast
Issued by NWS

Home | Current Version | Previous Version | Text Only | Print | Product List | Glossary On
Versions: 1 2 3 4 5 6 7 8 9 10
635
FTUS42 TJSJ 230543
TAFJMZ
TAF
TJMZ 230543Z 2306/2406 VRB05KT P6SM SCT050 SCT090
     FM231530 26009KT P6SM VCTS FEW025CB SCT040 SCT070
     FM232330 11005KT P6SM VCSH SCT030 BKN090
      AMD NOT SKED=

USA.gov is the U.S. government's official web portal to all federal, state and local government web resources and services.